sensor_id;sensor_type;location;lat;lon;timestamp;P1;durP1;ratioP1;P2;durP2;ratioP2
7253;SDS011;4060;49.186;9.226;2023-07-29T00:00:20;5.07;;;2.55;;
7253;SDS011;4060;49.186;9.226;2023-07-29T00:02:50;2.65;;;2.22;;
7253;SDS011;4060;49.186;9.226;2023-07-29T00:05:19;2.53;;;2.33;;
7253;SDS011;4060;49.186;9.226;2023-07-29T00:07:49;4.15;;;2.60;;
7253;SDS011;4060;49.186;9.226;2023-07-29T00:10:19;2.33;;;2.13;;
7253;SDS011;4060;49.186;9.226;2023-07-29T00:12:49;2.47;;;2.28;;
7253;SDS011;4060;49.186;9.226;2023-07-29T00:15:21;4.15;;;2.50;;
7253;SDS011;4060;49.186;9.226;2023-07-29T00:17:50;2.45;;;2.25;;
7253;SDS011;4060;49.186;9.226;2023-07-29T00:20:21;2.15;;;1.95;;
7253;SDS011;4060;49.186;9.226;2023-07-29T00:22:52;2.25;;;2.05;;
7253;SDS011;4060;49.186;9.226;2023-07-29T00:25:23;4.95;;;2.42;;
7253;SDS011;4060;49.186;9.226;2023-07-29T00:27:54;2.45;;;2.20;;
7253;SDS011;4060;49.186;9.226;2023-07-29T00:30:26;3.80;;;2.38;;
7253;SDS011;4060;49.186;9.226;2023-07-29T00:32:55;2.22;;;1.98;;
7253;SDS011;4060;49.186;9.226;2023-07-29T00:35:25;2.17;;;2.05;;
7253;SDS011;4060;49.186;9.226;2023-07-29T00:37:54;1.73;;;1.50;;
7253;SDS011;4060;49.186;9.226;2023-07-29T00:40:24;2.33;;;1.85;;
7253;SDS011;4060;49.186;9.226;2023-07-29T00:42:56;4.47;;;1.95;;
7253;SDS011;4060;49.186;9.226;2023-07-29T00:45:28;2.22;;;1.80;;
7253;SDS011;4060;49.186;9.226;2023-07-29T00:48:00;1.88;;;1.77;;
7253;SDS011;4060;49.186;9.226;2023-07-29T00:50:31;1.60;;;1.30;;
7253;SDS011;4060;49.186;9.226;2023-07-29T00:53:03;2.15;;;1.60;;
7253;SDS011;4060;49.186;9.226;2023-07-29T00:55:32;1.75;;;1.60;;
7253;SDS011;4060;49.186;9.226;2023-07-29T00:58:02;1.50;;;1.30;;
7253;SDS011;4060;49.186;9.226;2023-07-29T01:00:34;1.55;;;1.45;;
7253;SDS011;4060;49.186;9.226;2023-07-29T01:03:03;2.40;;;1.55;;
7253;SDS011;4060;49.186;9.226;2023-07-29T01:05:35;1.52;;;1.42;;
7253;SDS011;4060;49.186;9.226;2023-07-29T01:08:16;1.45;;;1.35;;
7253;SDS011;4060;49.186;9.226;2023-07-29T01:10:58;2.97;;;1.52;;
7253;SDS011;4060;49.186;9.226;2023-07-29T01:13:33;1.63;;;1.40;;
7253;SDS011;4060;49.186;9.226;2023-07-29T01:16:17;1.48;;;1.38;;
7253;SDS011;4060;49.186;9.226;2023-07-29T01:18:52;2.85;;;1.60;;
7253;SDS011;4060;49.186;9.226;2023-07-29T01:21:23;1.60;;;1.50;;
7253;SDS011;4060;49.186;9.226;2023-07-29T01:24:00;2.42;;;1.75;;
7253;SDS011;4060;49.186;9.226;2023-07-29T01:26:30;1.52;;;1.40;;
7253;SDS011;4060;49.186;9.226;2023-07-29T01:28:59;2.30;;;1.45;;
7253;SDS011;4060;49.186;9.226;2023-07-29T01:31:30;1.55;;;1.45;;
7253;SDS011;4060;49.186;9.226;2023-07-29T01:34:05;2.38;;;1.42;;
7253;SDS011;4060;49.186;9.226;2023-07-29T01:36:38;2.20;;;1.20;;
7253;SDS011;4060;49.186;9.226;2023-07-29T01:39:11;2.17;;;1.52;;
7253;SDS011;4060;49.186;9.226;2023-07-29T01:41:42;1.67;;;1.35;;
7253;SDS011;4060;49.186;9.226;2023-07-29T01:44:13;2.95;;;1.42;;
7253;SDS011;4060;49.186;9.226;2023-07-29T01:46:43;1.20;;;1.10;;
7253;SDS011;4060;49.186;9.226;2023-07-29T01:49:13;1.45;;;1.13;;
7253;SDS011;4060;49.186;9.226;2023-07-29T01:51:42;3.33;;;1.33;;
7253;SDS011;4060;49.186;9.226;2023-07-29T01:54:14;1.30;;;1.20;;
7253;SDS011;4060;49.186;9.226;2023-07-29T01:56:45;1.52;;;1.23;;
7253;SDS011;4060;49.186;9.226;2023-07-29T01:59:14;1.60;;;1.20;;
7253;SDS011;4060;49.186;9.226;2023-07-29T02:01:43;1.80;;;1.40;;
7253;SDS011;4060;49.186;9.226;2023-07-29T02:04:15;1.35;;;1.25;;
7253;SDS011;4060;49.186;9.226;2023-07-29T02:06:46;2.13;;;1.20;;
7253;SDS011;4060;49.186;9.226;2023-07-29T02:09:19;1.65;;;1.33;;
7253;SDS011;4060;49.186;9.226;2023-07-29T02:11:49;1.30;;;1.20;;
7253;SDS011;4060;49.186;9.226;2023-07-29T02:14:18;1.10;;;1.02;;
7253;SDS011;4060;49.186;9.226;2023-07-29T02:16:49;1.42;;;1.33;;
7253;SDS011;4060;49.186;9.226;2023-07-29T02:19:19;1.38;;;1.15;;
7253;SDS011;4060;49.186;9.226;2023-07-29T02:21:49;1.58;;;1.25;;
7253;SDS011;4060;49.186;9.226;2023-07-29T02:24:20;0.85;;;0.80;;
7253;SDS011;4060;49.186;9.226;2023-07-29T02:26:50;1.45;;;1.10;;
7253;SDS011;4060;49.186;9.226;2023-07-29T02:29:20;1.45;;;1.33;;
7253;SDS011;4060;49.186;9.226;2023-07-29T02:31:51;1.30;;;1.20;;
7253;SDS011;4060;49.186;9.226;2023-07-29T02:34:21;1.95;;;0.98;;
7253;SDS011;4060;49.186;9.226;2023-07-29T02:36:51;1.20;;;1.10;;
7253;SDS011;4060;49.186;9.226;2023-07-29T02:39:23;1.25;;;1.15;;
7253;SDS011;4060;49.186;9.226;2023-07-29T02:41:53;1.02;;;0.93;;
7253;SDS011;4060;49.186;9.226;2023-07-29T02:44:25;1.20;;;1.10;;
7253;SDS011;4060;49.186;9.226;2023-07-29T02:46:57;0.90;;;0.90;;
7253;SDS011;4060;49.186;9.226;2023-07-29T02:49:26;0.90;;;0.90;;
7253;SDS011;4060;49.186;9.226;2023-07-29T02:51:56;1.00;;;0.90;;
7253;SDS011;4060;49.186;9.226;2023-07-29T02:54:28;1.20;;;1.10;;
7253;SDS011;4060;49.186;9.226;2023-07-29T02:56:58;1.75;;;1.25;;
7253;SDS011;4060;49.186;9.226;2023-07-29T02:59:29;0.80;;;0.80;;
7253;SDS011;4060;49.186;9.226;2023-07-29T03:01:59;2.15;;;1.17;;
7253;SDS011;4060;49.186;9.226;2023-07-29T03:04:28;1.73;;;1.10;;
7253;SDS011;4060;49.186;9.226;2023-07-29T03:06:59;1.88;;;1.13;;
7253;SDS011;4060;49.186;9.226;2023-07-29T03:09:30;0.98;;;0.88;;
7253;SDS011;4060;49.186;9.226;2023-07-29T03:12:01;1.67;;;1.08;;
7253;SDS011;4060;49.186;9.226;2023-07-29T03:14:31;0.90;;;0.90;;
7253;SDS011;4060;49.186;9.226;2023-07-29T03:17:02;1.40;;;0.90;;
7253;SDS011;4060;49.186;9.226;2023-07-29T03:19:32;2.60;;;1.30;;
7253;SDS011;4060;49.186;9.226;2023-07-29T03:22:02;2.78;;;1.13;;
7253;SDS011;4060;49.186;9.226;2023-07-29T03:24:34;1.10;;;1.00;;
7253;SDS011;4060;49.186;9.226;2023-07-29T03:27:04;1.20;;;1.10;;
7253;SDS011;4060;49.186;9.226;2023-07-29T03:29:35;1.30;;;1.20;;
7253;SDS011;4060;49.186;9.226;2023-07-29T03:32:08;1.17;;;1.08;;
7253;SDS011;4060;49.186;9.226;2023-07-29T03:34:39;1.42;;;0.90;;
7253;SDS011;4060;49.186;9.226;2023-07-29T03:37:08;1.20;;;1.05;;
7253;SDS011;4060;49.186;9.226;2023-07-29T03:39:40;4.50;;;1.05;;
7253;SDS011;4060;49.186;9.226;2023-07-29T03:42:09;1.13;;;1.02;;
7253;SDS011;4060;49.186;9.226;2023-07-29T03:44:39;1.08;;;1.02;;
7253;SDS011;4060;49.186;9.226;2023-07-29T03:47:09;1.75;;;1.00;;
7253;SDS011;4060;49.186;9.226;2023-07-29T03:49:38;1.70;;;1.00;;
7253;SDS011;4060;49.186;9.226;2023-07-29T03:52:08;1.13;;;1.02;;
7253;SDS011;4060;49.186;9.226;2023-07-29T03:54:40;1.50;;;1.02;;
7253;SDS011;4060;49.186;9.226;2023-07-29T03:57:10;1.05;;;1.02;;
7253;SDS011;4060;49.186;9.226;2023-07-29T03:59:39;2.13;;;1.17;;
7253;SDS011;4060;49.186;9.226;2023-07-29T04:02:10;1.05;;;1.02;;
7253;SDS011;4060;49.186;9.226;2023-07-29T04:04:40;1.95;;;1.15;;
7253;SDS011;4060;49.186;9.226;2023-07-29T04:07:14;1.45;;;1.20;;
7253;SDS011;4060;49.186;9.226;2023-07-29T04:09:46;1.40;;;1.30;;
7253;SDS011;4060;49.186;9.226;2023-07-29T04:12:15;2.92;;;1.40;;
7253;SDS011;4060;49.186;9.226;2023-07-29T04:14:47;1.30;;;1.17;;
7253;SDS011;4060;49.186;9.226;2023-07-29T04:17:17;1.52;;;1.40;;
7253;SDS011;4060;49.186;9.226;2023-07-29T04:19:47;1.65;;;1.30;;
7253;SDS011;4060;49.186;9.226;2023-07-29T04:22:17;1.23;;;1.13;;
7253;SDS011;4060;49.186;9.226;2023-07-29T04:24:49;1.20;;;1.10;;
7253;SDS011;4060;49.186;9.226;2023-07-29T04:27:20;1.33;;;1.23;;
7253;SDS011;4060;49.186;9.226;2023-07-29T04:29:50;1.25;;;0.88;;
7253;SDS011;4060;49.186;9.226;2023-07-29T04:32:20;1.73;;;1.20;;
7253;SDS011;4060;49.186;9.226;2023-07-29T04:34:50;1.92;;;1.10;;
7253;SDS011;4060;49.186;9.226;2023-07-29T04:37:19;1.65;;;1.40;;
7253;SDS011;4060;49.186;9.226;2023-07-29T04:39:51;1.48;;;1.10;;
7253;SDS011;4060;49.186;9.226;2023-07-29T04:42:20;1.52;;;1.27;;
7253;SDS011;4060;49.186;9.226;2023-07-29T04:44:50;1.30;;;1.20;;
7253;SDS011;4060;49.186;9.226;2023-07-29T04:47:20;2.47;;;1.15;;
7253;SDS011;4060;49.186;9.226;2023-07-29T04:49:50;1.40;;;1.30;;
7253;SDS011;4060;49.186;9.226;2023-07-29T04:52:20;2.08;;;1.00;;
7253;SDS011;4060;49.186;9.226;2023-07-29T04:54:53;3.90;;;1.27;;
7253;SDS011;4060;49.186;9.226;2023-07-29T04:57:23;1.52;;;1.05;;
7253;SDS011;4060;49.186;9.226;2023-07-29T04:59:53;2.72;;;1.40;;
7253;SDS011;4060;49.186;9.226;2023-07-29T05:02:24;2.25;;;1.58;;
7253;SDS011;4060;49.186;9.226;2023-07-29T05:04:54;1.63;;;1.17;;
7253;SDS011;4060;49.186;9.226;2023-07-29T05:07:24;1.48;;;1.38;;
7253;SDS011;4060;49.186;9.226;2023-07-29T05:09:56;1.77;;;1.40;;
7253;SDS011;4060;49.186;9.226;2023-07-29T05:12:25;3.38;;;1.80;;
7253;SDS011;4060;49.186;9.226;2023-07-29T05:14:55;3.70;;;1.60;;
7253;SDS011;4060;49.186;9.226;2023-07-29T05:17:25;2.13;;;1.40;;
7253;SDS011;4060;49.186;9.226;2023-07-29T05:19:55;4.65;;;2.03;;
7253;SDS011;4060;49.186;9.226;2023-07-29T05:26:07;8.27;;;3.63;;
7253;SDS011;4060;49.186;9.226;2023-07-29T05:28:39;7.10;;;2.53;;
7253;SDS011;4060;49.186;9.226;2023-07-29T05:31:09;6.55;;;2.72;;
7253;SDS011;4060;49.186;9.226;2023-07-29T05:33:38;5.65;;;2.92;;
7253;SDS011;4060;49.186;9.226;2023-07-29T05:36:07;6.72;;;2.65;;
7253;SDS011;4060;49.186;9.226;2023-07-29T05:38:37;4.15;;;2.05;;
7253;SDS011;4060;49.186;9.226;2023-07-29T05:41:08;3.55;;;2.55;;
7253;SDS011;4060;49.186;9.226;2023-07-29T05:43:37;4.85;;;2.30;;
7253;SDS011;4060;49.186;9.226;2023-07-29T05:46:09;3.15;;;1.80;;
7253;SDS011;4060;49.186;9.226;2023-07-29T05:48:39;3.85;;;1.75;;
7253;SDS011;4060;49.186;9.226;2023-07-29T05:51:08;4.03;;;2.03;;
7253;SDS011;4060;49.186;9.226;2023-07-29T05:53:37;2.50;;;1.83;;
7253;SDS011;4060;49.186;9.226;2023-07-29T05:56:09;3.47;;;1.50;;
7253;SDS011;4060;49.186;9.226;2023-07-29T05:58:38;2.38;;;1.52;;
7253;SDS011;4060;49.186;9.226;2023-07-29T06:01:08;3.67;;;1.70;;
7253;SDS011;4060;49.186;9.226;2023-07-29T06:03:38;3.38;;;1.48;;
7253;SDS011;4060;49.186;9.226;2023-07-29T06:06:08;2.58;;;1.65;;
7253;SDS011;4060;49.186;9.226;2023-07-29T06:08:38;4.57;;;1.95;;
7253;SDS011;4060;49.186;9.226;2023-07-29T06:11:10;2.33;;;1.70;;
7253;SDS011;4060;49.186;9.226;2023-07-29T06:13:39;1.55;;;1.40;;
7253;SDS011;4060;49.186;9.226;2023-07-29T06:16:09;2.22;;;1.80;;
7253;SDS011;4060;49.186;9.226;2023-07-29T06:18:43;2.58;;;1.67;;
7253;SDS011;4060;49.186;9.226;2023-07-29T06:21:12;2.03;;;1.48;;
7253;SDS011;4060;49.186;9.226;2023-07-29T06:23:43;2.40;;;1.58;;
7253;SDS011;4060;49.186;9.226;2023-07-29T06:26:15;1.67;;;1.52;;
7253;SDS011;4060;49.186;9.226;2023-07-29T06:28:44;2.55;;;1.73;;
7253;SDS011;4060;49.186;9.226;2023-07-29T06:31:13;1.73;;;1.63;;
7253;SDS011;4060;49.186;9.226;2023-07-29T06:33:43;2.00;;;1.65;;
7253;SDS011;4060;49.186;9.226;2023-07-29T06:36:12;2.53;;;1.60;;
7253;SDS011;4060;49.186;9.226;2023-07-29T06:38:42;1.67;;;1.45;;
7253;SDS011;4060;49.186;9.226;2023-07-29T06:41:11;2.03;;;1.48;;
7253;SDS011;4060;49.186;9.226;2023-07-29T06:43:43;1.92;;;1.70;;
7253;SDS011;4060;49.186;9.226;2023-07-29T06:46:12;1.70;;;1.55;;
7253;SDS011;4060;49.186;9.226;2023-07-29T06:48:41;1.48;;;1.38;;
7253;SDS011;4060;49.186;9.226;2023-07-29T06:51:10;2.05;;;1.75;;
7253;SDS011;4060;49.186;9.226;2023-07-29T06:53:40;1.75;;;1.65;;
7253;SDS011;4060;49.186;9.226;2023-07-29T06:56:10;3.03;;;1.98;;
7253;SDS011;4060;49.186;9.226;2023-07-29T06:58:41;1.63;;;1.52;;
7253;SDS011;4060;49.186;9.226;2023-07-29T07:01:11;1.83;;;1.63;;
7253;SDS011;4060;49.186;9.226;2023-07-29T07:03:41;2.67;;;2.00;;
7253;SDS011;4060;49.186;9.226;2023-07-29T07:06:10;2.00;;;1.90;;
7253;SDS011;4060;49.186;9.226;2023-07-29T07:08:40;2.35;;;1.88;;
7253;SDS011;4060;49.186;9.226;2023-07-29T07:11:10;2.55;;;2.20;;
7253;SDS011;4060;49.186;9.226;2023-07-29T07:13:41;1.83;;;1.70;;
7253;SDS011;4060;49.186;9.226;2023-07-29T07:16:11;2.92;;;1.63;;
7253;SDS011;4060;49.186;9.226;2023-07-29T07:18:40;3.55;;;1.98;;
7253;SDS011;4060;49.186;9.226;2023-07-29T07:21:10;3.38;;;2.05;;
7253;SDS011;4060;49.186;9.226;2023-07-29T07:23:40;2.53;;;1.80;;
7253;SDS011;4060;49.186;9.226;2023-07-29T07:26:09;2.00;;;1.80;;
7253;SDS011;4060;49.186;9.226;2023-07-29T07:28:41;2.30;;;2.10;;
7253;SDS011;4060;49.186;9.226;2023-07-29T07:31:10;2.70;;;2.05;;
7253;SDS011;4060;49.186;9.226;2023-07-29T07:33:40;2.20;;;2.10;;
7253;SDS011;4060;49.186;9.226;2023-07-29T07:36:10;2.05;;;1.80;;
7253;SDS011;4060;49.186;9.226;2023-07-29T07:38:40;3.35;;;2.17;;
7253;SDS011;4060;49.186;9.226;2023-07-29T07:41:11;4.35;;;2.10;;
7253;SDS011;4060;49.186;9.226;2023-07-29T07:43:44;2.20;;;2.00;;
7253;SDS011;4060;49.186;9.226;2023-07-29T07:46:14;2.13;;;2.00;;
7253;SDS011;4060;49.186;9.226;2023-07-29T07:48:44;3.47;;;2.13;;
7253;SDS011;4060;49.186;9.226;2023-07-29T07:51:15;3.35;;;2.10;;
7253;SDS011;4060;49.186;9.226;2023-07-29T07:53:45;3.80;;;2.20;;
7253;SDS011;4060;49.186;9.226;2023-07-29T07:56:15;2.97;;;1.98;;
7253;SDS011;4060;49.186;9.226;2023-07-29T07:58:47;2.65;;;1.85;;
7253;SDS011;4060;49.186;9.226;2023-07-29T08:01:16;2.95;;;2.20;;
7253;SDS011;4060;49.186;9.226;2023-07-29T08:03:46;2.65;;;2.17;;
7253;SDS011;4060;49.186;9.226;2023-07-29T08:06:16;2.45;;;2.22;;
7253;SDS011;4060;49.186;9.226;2023-07-29T08:08:47;2.08;;;1.73;;
7253;SDS011;4060;49.186;9.226;2023-07-29T08:11:16;2.05;;;1.85;;
7253;SDS011;4060;49.186;9.226;2023-07-29T08:13:47;3.10;;;2.10;;
7253;SDS011;4060;49.186;9.226;2023-07-29T08:16:17;2.10;;;1.90;;
7253;SDS011;4060;49.186;9.226;2023-07-29T08:18:47;1.95;;;1.77;;
7253;SDS011;4060;49.186;9.226;2023-07-29T08:21:17;2.22;;;2.03;;
7253;SDS011;4060;49.186;9.226;2023-07-29T08:23:47;2.25;;;1.80;;
7253;SDS011;4060;49.186;9.226;2023-07-29T08:26:17;2.42;;;2.22;;
7253;SDS011;4060;49.186;9.226;2023-07-29T08:28:49;2.10;;;1.90;;
7253;SDS011;4060;49.186;9.226;2023-07-29T08:31:19;1.80;;;1.70;;
7253;SDS011;4060;49.186;9.226;2023-07-29T08:33:49;3.33;;;1.98;;
7253;SDS011;4060;49.186;9.226;2023-07-29T08:36:19;1.63;;;1.52;;
7253;SDS011;4060;49.186;9.226;2023-07-29T08:38:49;1.70;;;1.50;;
7253;SDS011;4060;49.186;9.226;2023-07-29T08:41:19;2.00;;;1.80;;
7253;SDS011;4060;49.186;9.226;2023-07-29T08:43:59;2.13;;;1.80;;
7253;SDS011;4060;49.186;9.226;2023-07-29T08:46:36;2.78;;;1.77;;
7253;SDS011;4060;49.186;9.226;2023-07-29T08:49:07;1.75;;;1.65;;
7253;SDS011;4060;49.186;9.226;2023-07-29T08:51:42;1.92;;;1.83;;
7253;SDS011;4060;49.186;9.226;2023-07-29T08:54:12;2.75;;;1.92;;
7253;SDS011;4060;49.186;9.226;2023-07-29T08:56:43;2.35;;;1.55;;
7253;SDS011;4060;49.186;9.226;2023-07-29T08:59:15;1.73;;;1.63;;
7253;SDS011;4060;49.186;9.226;2023-07-29T09:01:46;2.17;;;2.05;;
7253;SDS011;4060;49.186;9.226;2023-07-29T09:04:16;2.60;;;2.10;;
7253;SDS011;4060;49.186;9.226;2023-07-29T09:06:46;1.95;;;1.77;;
7253;SDS011;4060;49.186;9.226;2023-07-29T09:09:18;2.20;;;1.92;;
7253;SDS011;4060;49.186;9.226;2023-07-29T09:11:49;2.10;;;1.90;;
7253;SDS011;4060;49.186;9.226;2023-07-29T09:14:21;3.10;;;1.90;;
7253;SDS011;4060;49.186;9.226;2023-07-29T09:16:52;4.38;;;2.35;;
7253;SDS011;4060;49.186;9.226;2023-07-29T09:19:25;2.50;;;2.10;;
7253;SDS011;4060;49.186;9.226;2023-07-29T09:21:54;2.08;;;1.90;;
7253;SDS011;4060;49.186;9.226;2023-07-29T09:24:24;2.58;;;1.95;;
7253;SDS011;4060;49.186;9.226;2023-07-29T09:26:58;2.40;;;2.20;;
7253;SDS011;4060;49.186;9.226;2023-07-29T09:29:30;2.60;;;2.13;;
7253;SDS011;4060;49.186;9.226;2023-07-29T09:34:48;3.00;;;1.85;;
7253;SDS011;4060;49.186;9.226;2023-07-29T09:37:19;1.92;;;1.83;;
7253;SDS011;4060;49.186;9.226;2023-07-29T09:39:50;1.80;;;1.70;;
7253;SDS011;4060;49.186;9.226;2023-07-29T09:42:21;2.88;;;1.90;;
7253;SDS011;4060;49.186;9.226;2023-07-29T09:44:55;1.70;;;1.60;;
7253;SDS011;4060;49.186;9.226;2023-07-29T09:47:25;2.15;;;1.95;;
7253;SDS011;4060;49.186;9.226;2023-07-29T09:49:55;1.80;;;1.70;;
7253;SDS011;4060;49.186;9.226;2023-07-29T09:52:25;1.67;;;1.52;;
7253;SDS011;4060;49.186;9.226;2023-07-29T09:54:55;2.33;;;1.65;;
7253;SDS011;4060;49.186;9.226;2023-07-29T09:57:25;1.83;;;1.40;;
7253;SDS011;4060;49.186;9.226;2023-07-29T09:59:57;1.88;;;1.77;;
7253;SDS011;4060;49.186;9.226;2023-07-29T10:02:31;1.90;;;1.80;;
7253;SDS011;4060;49.186;9.226;2023-07-29T10:05:01;1.98;;;1.70;;
7253;SDS011;4060;49.186;9.226;2023-07-29T10:07:33;1.90;;;1.75;;
7253;SDS011;4060;49.186;9.226;2023-07-29T10:10:05;2.80;;;1.70;;
7253;SDS011;4060;49.186;9.226;2023-07-29T10:12:35;2.25;;;2.05;;
7253;SDS011;4060;49.186;9.226;2023-07-29T10:15:13;1.58;;;1.48;;
7253;SDS011;4060;49.186;9.226;2023-07-29T10:17:42;1.83;;;1.63;;
7253;SDS011;4060;49.186;9.226;2023-07-29T10:20:14;2.20;;;2.00;;
7253;SDS011;4060;49.186;9.226;2023-07-29T10:22:45;3.05;;;2.05;;
7253;SDS011;4060;49.186;9.226;2023-07-29T10:25:16;1.63;;;1.52;;
7253;SDS011;4060;49.186;9.226;2023-07-29T10:27:47;2.20;;;2.00;;
7253;SDS011;4060;49.186;9.226;2023-07-29T10:30:22;1.92;;;1.83;;
7253;SDS011;4060;49.186;9.226;2023-07-29T10:32:53;1.98;;;1.70;;
7253;SDS011;4060;49.186;9.226;2023-07-29T10:35:26;1.40;;;1.25;;
7253;SDS011;4060;49.186;9.226;2023-07-29T10:37:58;1.60;;;1.50;;
7253;SDS011;4060;49.186;9.226;2023-07-29T10:43:18;1.58;;;1.48;;
7253;SDS011;4060;49.186;9.226;2023-07-29T10:45:56;1.65;;;1.55;;
7253;SDS011;4060;49.186;9.226;2023-07-29T10:48:41;1.60;;;1.50;;
7253;SDS011;4060;49.186;9.226;2023-07-29T10:51:25;2.03;;;1.58;;
7253;SDS011;4060;49.186;9.226;2023-07-29T10:53:59;2.00;;;1.83;;
7253;SDS011;4060;49.186;9.226;2023-07-29T10:56:30;1.77;;;1.45;;
7253;SDS011;4060;49.186;9.226;2023-07-29T10:59:09;1.60;;;1.50;;
7253;SDS011;4060;49.186;9.226;2023-07-29T11:02:11;1.40;;;1.30;;
7253;SDS011;4060;49.186;9.226;2023-07-29T11:04:49;1.50;;;1.40;;
7253;SDS011;4060;49.186;9.226;2023-07-29T11:07:23;1.73;;;1.50;;
7253;SDS011;4060;49.186;9.226;2023-07-29T11:09:57;1.70;;;1.60;;
7253;SDS011;4060;49.186;9.226;2023-07-29T11:15:21;2.90;;;2.05;;
7253;SDS011;4060;49.186;9.226;2023-07-29T11:17:54;1.80;;;1.70;;
7253;SDS011;4060;49.186;9.226;2023-07-29T11:20:24;3.97;;;1.95;;
7253;SDS011;4060;49.186;9.226;2023-07-29T11:22:56;2.55;;;1.52;;
7253;SDS011;4060;49.186;9.226;2023-07-29T11:25:27;1.40;;;1.30;;
7253;SDS011;4060;49.186;9.226;2023-07-29T11:27:59;1.60;;;1.50;;
7253;SDS011;4060;49.186;9.226;2023-07-29T11:30:31;1.50;;;1.40;;
7253;SDS011;4060;49.186;9.226;2023-07-29T11:33:05;3.17;;;1.35;;
7253;SDS011;4060;49.186;9.226;2023-07-29T11:35:35;1.20;;;1.10;;
7253;SDS011;4060;49.186;9.226;2023-07-29T11:38:06;1.20;;;1.10;;
7253;SDS011;4060;49.186;9.226;2023-07-29T11:40:36;1.40;;;1.10;;
7253;SDS011;4060;49.186;9.226;2023-07-29T11:43:05;1.50;;;1.40;;
7253;SDS011;4060;49.186;9.226;2023-07-29T11:45:36;1.20;;;1.10;;
7253;SDS011;4060;49.186;9.226;2023-07-29T11:48:11;1.35;;;1.20;;
7253;SDS011;4060;49.186;9.226;2023-07-29T11:50:41;1.65;;;1.17;;
7253;SDS011;4060;49.186;9.226;2023-07-29T11:53:12;1.38;;;1.27;;
7253;SDS011;4060;49.186;9.226;2023-07-29T11:55:42;1.30;;;1.10;;
7253;SDS011;4060;49.186;9.226;2023-07-29T11:58:11;1.27;;;1.10;;
7253;SDS011;4060;49.186;9.226;2023-07-29T12:00:41;1.65;;;1.13;;
7253;SDS011;4060;49.186;9.226;2023-07-29T12:03:14;1.20;;;1.10;;
7253;SDS011;4060;49.186;9.226;2023-07-29T12:05:44;1.35;;;1.20;;
7253;SDS011;4060;49.186;9.226;2023-07-29T12:08:14;1.30;;;1.20;;
7253;SDS011;4060;49.186;9.226;2023-07-29T12:10:47;1.58;;;1.10;;
7253;SDS011;4060;49.186;9.226;2023-07-29T12:13:17;1.88;;;1.10;;
7253;SDS011;4060;49.186;9.226;2023-07-29T12:15:53;1.40;;;1.10;;
7253;SDS011;4060;49.186;9.226;2023-07-29T12:18:32;1.30;;;1.20;;
7253;SDS011;4060;49.186;9.226;2023-07-29T12:21:02;1.35;;;1.25;;
7253;SDS011;4060;49.186;9.226;2023-07-29T12:23:33;1.58;;;1.20;;
7253;SDS011;4060;49.186;9.226;2023-07-29T12:26:04;2.13;;;1.00;;
7253;SDS011;4060;49.186;9.226;2023-07-29T12:28:34;1.58;;;1.20;;
7253;SDS011;4060;49.186;9.226;2023-07-29T12:31:06;2.50;;;1.20;;
7253;SDS011;4060;49.186;9.226;2023-07-29T12:33:40;1.40;;;1.30;;
7253;SDS011;4060;49.186;9.226;2023-07-29T12:36:12;1.48;;;1.38;;
7253;SDS011;4060;49.186;9.226;2023-07-29T12:38:42;1.10;;;1.10;;
7253;SDS011;4060;49.186;9.226;2023-07-29T12:41:13;1.48;;;1.38;;
7253;SDS011;4060;49.186;9.226;2023-07-29T12:43:42;1.33;;;1.23;;
7253;SDS011;4060;49.186;9.226;2023-07-29T12:46:13;2.25;;;1.33;;
7253;SDS011;4060;49.186;9.226;2023-07-29T12:48:45;1.30;;;1.20;;
7253;SDS011;4060;49.186;9.226;2023-07-29T12:51:15;1.30;;;1.20;;
7253;SDS011;4060;49.186;9.226;2023-07-29T12:53:46;1.65;;;1.35;;
7253;SDS011;4060;49.186;9.226;2023-07-29T12:56:17;1.15;;;1.15;;
7253;SDS011;4060;49.186;9.226;2023-07-29T12:58:46;1.27;;;1.17;;
7253;SDS011;4060;49.186;9.226;2023-07-29T13:01:16;1.40;;;1.30;;
7253;SDS011;4060;49.186;9.226;2023-07-29T13:03:48;2.00;;;1.27;;
7253;SDS011;4060;49.186;9.226;2023-07-29T13:06:18;1.30;;;1.20;;
7253;SDS011;4060;49.186;9.226;2023-07-29T13:08:48;2.90;;;1.40;;
7253;SDS011;4060;49.186;9.226;2023-07-29T13:11:17;1.20;;;1.10;;
7253;SDS011;4060;49.186;9.226;2023-07-29T13:13:47;1.40;;;1.30;;
7253;SDS011;4060;49.186;9.226;2023-07-29T13:16:20;2.25;;;1.50;;
7253;SDS011;4060;49.186;9.226;2023-07-29T13:18:52;1.50;;;1.27;;
7253;SDS011;4060;49.186;9.226;2023-07-29T13:21:21;1.65;;;1.40;;
7253;SDS011;4060;49.186;9.226;2023-07-29T13:23:51;2.97;;;1.50;;
7253;SDS011;4060;49.186;9.226;2023-07-29T13:26:20;1.25;;;1.15;;
7253;SDS011;4060;49.186;9.226;2023-07-29T13:28:51;2.10;;;1.35;;
7253;SDS011;4060;49.186;9.226;2023-07-29T13:31:21;2.55;;;1.30;;
7253;SDS011;4060;49.186;9.226;2023-07-29T13:33:53;1.42;;;1.33;;
7253;SDS011;4060;49.186;9.226;2023-07-29T13:36:24;1.30;;;1.20;;
7253;SDS011;4060;49.186;9.226;2023-07-29T13:38:54;1.38;;;1.27;;
7253;SDS011;4060;49.186;9.226;2023-07-29T13:41:24;1.40;;;1.30;;
7253;SDS011;4060;49.186;9.226;2023-07-29T13:43:54;1.40;;;1.30;;
7253;SDS011;4060;49.186;9.226;2023-07-29T13:46:24;1.38;;;1.27;;
7253;SDS011;4060;49.186;9.226;2023-07-29T13:48:55;2.25;;;1.10;;
7253;SDS011;4060;49.186;9.226;2023-07-29T13:51:24;1.63;;;1.52;;
7253;SDS011;4060;49.186;9.226;2023-07-29T13:53:54;1.45;;;1.20;;
7253;SDS011;4060;49.186;9.226;2023-07-29T13:56:24;1.45;;;1.35;;
7253;SDS011;4060;49.186;9.226;2023-07-29T13:58:54;1.38;;;1.23;;
7253;SDS011;4060;49.186;9.226;2023-07-29T14:01:24;1.67;;;1.38;;
7253;SDS011;4060;49.186;9.226;2023-07-29T14:03:57;1.95;;;1.42;;
7253;SDS011;4060;49.186;9.226;2023-07-29T14:06:27;2.00;;;1.40;;
7253;SDS011;4060;49.186;9.226;2023-07-29T14:09:03;1.77;;;1.25;;
7253;SDS011;4060;49.186;9.226;2023-07-29T14:11:42;1.35;;;1.25;;
7253;SDS011;4060;49.186;9.226;2023-07-29T14:14:17;2.22;;;1.45;;
7253;SDS011;4060;49.186;9.226;2023-07-29T14:16:46;1.40;;;1.20;;
7253;SDS011;4060;49.186;9.226;2023-07-29T14:19:19;2.08;;;1.30;;
7253;SDS011;4060;49.186;9.226;2023-07-29T14:21:49;1.67;;;1.20;;
7253;SDS011;4060;49.186;9.226;2023-07-29T14:24:19;3.17;;;1.58;;
7253;SDS011;4060;49.186;9.226;2023-07-29T14:26:49;2.90;;;1.52;;
7253;SDS011;4060;49.186;9.226;2023-07-29T14:29:19;1.92;;;1.30;;
7253;SDS011;4060;49.186;9.226;2023-07-29T14:31:49;1.30;;;1.17;;
7253;SDS011;4060;49.186;9.226;2023-07-29T14:34:21;1.33;;;1.20;;
7253;SDS011;4060;49.186;9.226;2023-07-29T14:36:51;1.50;;;1.40;;
7253;SDS011;4060;49.186;9.226;2023-07-29T14:39:24;1.77;;;1.27;;
7253;SDS011;4060;49.186;9.226;2023-07-29T14:41:54;1.73;;;1.30;;
7253;SDS011;4060;49.186;9.226;2023-07-29T14:44:23;2.92;;;1.20;;
7253;SDS011;4060;49.186;9.226;2023-07-29T14:46:53;3.15;;;1.23;;
7253;SDS011;4060;49.186;9.226;2023-07-29T14:49:25;1.67;;;1.27;;
7253;SDS011;4060;49.186;9.226;2023-07-29T14:51:55;1.35;;;1.25;;
7253;SDS011;4060;49.186;9.226;2023-07-29T14:54:24;2.15;;;1.58;;
7253;SDS011;4060;49.186;9.226;2023-07-29T14:56:54;1.58;;;1.40;;
7253;SDS011;4060;49.186;9.226;2023-07-29T14:59:24;1.40;;;1.30;;
7253;SDS011;4060;49.186;9.226;2023-07-29T15:01:54;1.52;;;1.25;;
7253;SDS011;4060;49.186;9.226;2023-07-29T15:04:26;1.83;;;1.42;;
7253;SDS011;4060;49.186;9.226;2023-07-29T15:06:55;2.25;;;1.33;;
7253;SDS011;4060;49.186;9.226;2023-07-29T15:09:26;1.52;;;1.30;;
7253;SDS011;4060;49.186;9.226;2023-07-29T15:11:58;1.60;;;1.30;;
7253;SDS011;4060;49.186;9.226;2023-07-29T15:14:28;1.30;;;1.20;;
7253;SDS011;4060;49.186;9.226;2023-07-29T15:16:59;1.88;;;1.20;;
7253;SDS011;4060;49.186;9.226;2023-07-29T15:19:30;1.40;;;1.30;;
7253;SDS011;4060;49.186;9.226;2023-07-29T15:22:00;1.55;;;1.45;;
7253;SDS011;4060;49.186;9.226;2023-07-29T15:24:30;1.60;;;1.17;;
7253;SDS011;4060;49.186;9.226;2023-07-29T15:27:00;1.42;;;1.23;;
7253;SDS011;4060;49.186;9.226;2023-07-29T15:29:29;1.42;;;1.33;;
7253;SDS011;4060;49.186;9.226;2023-07-29T15:31:59;1.45;;;1.20;;
7253;SDS011;4060;49.186;9.226;2023-07-29T15:34:33;1.52;;;1.20;;
7253;SDS011;4060;49.186;9.226;2023-07-29T15:37:02;1.45;;;1.35;;
7253;SDS011;4060;49.186;9.226;2023-07-29T15:39:32;1.33;;;1.13;;
7253;SDS011;4060;49.186;9.226;2023-07-29T15:42:02;1.30;;;1.20;;
7253;SDS011;4060;49.186;9.226;2023-07-29T15:44:32;2.90;;;1.48;;
7253;SDS011;4060;49.186;9.226;2023-07-29T15:47:03;1.83;;;1.40;;
7253;SDS011;4060;49.186;9.226;2023-07-29T15:49:34;2.08;;;1.52;;